sensor_id;sensor_type;location;lat;lon;timestamp;temperature;humidity
32506;DHT22;18955;51.224;8.482;2022-07-23T00:01:00;18.30;69.80
32506;DHT22;18955;51.224;8.482;2022-07-23T00:03:27;18.30;69.70
32506;DHT22;18955;51.224;8.482;2022-07-23T00:05:53;18.30;69.80
32506;DHT22;18955;51.224;8.482;2022-07-23T00:08:19;18.30;69.80
32506;DHT22;18955;51.224;8.482;2022-07-23T00:10:46;18.30;70.20
32506;DHT22;18955;51.224;8.482;2022-07-23T00:13:12;18.20;69.90
32506;DHT22;18955;51.224;8.482;2022-07-23T00:15:38;18.20;69.90
32506;DHT22;18955;51.224;8.482;2022-07-23T00:18:04;18.20;70.20
32506;DHT22;18955;51.224;8.482;2022-07-23T00:20:30;18.20;69.70
32506;DHT22;18955;51.224;8.482;2022-07-23T00:22:57;18.20;70.10
32506;DHT22;18955;51.224;8.482;2022-07-23T00:25:23;18.10;69.80
32506;DHT22;18955;51.224;8.482;2022-07-23T00:27:49;18.10;70.00
32506;DHT22;18955;51.224;8.482;2022-07-23T00:30:16;18.10;69.80
32506;DHT22;18955;51.224;8.482;2022-07-23T00:35:12;18.10;70.10
32506;DHT22;18955;51.224;8.482;2022-07-23T00:37:38;18.10;70.10
32506;DHT22;18955;51.224;8.482;2022-07-23T00:40:05;18.00;70.00
32506;DHT22;18955;51.224;8.482;2022-07-23T00:42:32;18.00;70.20
32506;DHT22;18955;51.224;8.482;2022-07-23T00:44:59;18.00;70.20
32506;DHT22;18955;51.224;8.482;2022-07-23T00:47:25;18.00;70.30
32506;DHT22;18955;51.224;8.482;2022-07-23T00:49:51;18.00;70.40
32506;DHT22;18955;51.224;8.482;2022-07-23T00:52:18;18.00;70.00
32506;DHT22;18955;51.224;8.482;2022-07-23T00:54:45;18.00;70.10
32506;DHT22;18955;51.224;8.482;2022-07-23T00:57:11;18.00;70.10
32506;DHT22;18955;51.224;8.482;2022-07-23T00:59:40;17.90;70.30
32506;DHT22;18955;51.224;8.482;2022-07-23T01:02:07;17.90;69.90
32506;DHT22;18955;51.224;8.482;2022-07-23T01:04:34;17.90;70.10
32506;DHT22;18955;51.224;8.482;2022-07-23T01:07:00;17.90;70.00
32506;DHT22;18955;51.224;8.482;2022-07-23T01:09:27;17.90;69.90
32506;DHT22;18955;51.224;8.482;2022-07-23T01:11:57;17.90;70.40
32506;DHT22;18955;51.224;8.482;2022-07-23T01:14:24;17.80;70.20
32506;DHT22;18955;51.224;8.482;2022-07-23T01:16:50;17.80;70.20
32506;DHT22;18955;51.224;8.482;2022-07-23T01:19:17;17.80;70.00
32506;DHT22;18955;51.224;8.482;2022-07-23T01:21:48;17.80;70.10
32506;DHT22;18955;51.224;8.482;2022-07-23T01:24:16;17.80;70.00
32506;DHT22;18955;51.224;8.482;2022-07-23T01:26:57;17.80;70.00
32506;DHT22;18955;51.224;8.482;2022-07-23T01:29:24;17.80;69.80
32506;DHT22;18955;51.224;8.482;2022-07-23T01:31:51;17.80;70.00
32506;DHT22;18955;51.224;8.482;2022-07-23T01:34:18;17.80;69.80
32506;DHT22;18955;51.224;8.482;2022-07-23T01:36:44;17.70;70.10
32506;DHT22;18955;51.224;8.482;2022-07-23T01:39:11;17.70;69.80
32506;DHT22;18955;51.224;8.482;2022-07-23T01:41:37;17.70;70.00
32506;DHT22;18955;51.224;8.482;2022-07-23T01:44:04;17.70;70.00
32506;DHT22;18955;51.224;8.482;2022-07-23T01:46:30;17.70;69.90
32506;DHT22;18955;51.224;8.482;2022-07-23T01:48:57;17.70;70.00
32506;DHT22;18955;51.224;8.482;2022-07-23T01:51:49;17.60;70.00
32506;DHT22;18955;51.224;8.482;2022-07-23T01:54:43;17.60;69.90
32506;DHT22;18955;51.224;8.482;2022-07-23T01:57:10;17.60;69.90
32506;DHT22;18955;51.224;8.482;2022-07-23T01:59:36;17.60;70.00
32506;DHT22;18955;51.224;8.482;2022-07-23T02:02:05;17.60;70.00
32506;DHT22;18955;51.224;8.482;2022-07-23T02:04:32;17.60;69.90
32506;DHT22;18955;51.224;8.482;2022-07-23T02:07:01;17.60;69.90
32506;DHT22;18955;51.224;8.482;2022-07-23T02:09:28;17.60;70.10
32506;DHT22;18955;51.224;8.482;2022-07-23T02:11:54;17.60;70.00
32506;DHT22;18955;51.224;8.482;2022-07-23T02:14:20;17.60;69.90
32506;DHT22;18955;51.224;8.482;2022-07-23T02:16:46;17.60;69.90
32506;DHT22;18955;51.224;8.482;2022-07-23T02:19:14;17.50;69.90
32506;DHT22;18955;51.224;8.482;2022-07-23T02:21:41;17.50;70.00
32506;DHT22;18955;51.224;8.482;2022-07-23T02:24:07;17.50;69.90
32506;DHT22;18955;51.224;8.482;2022-07-23T02:26:33;17.50;70.00
32506;DHT22;18955;51.224;8.482;2022-07-23T02:29:03;17.50;69.80
32506;DHT22;18955;51.224;8.482;2022-07-23T02:31:30;17.50;69.90
32506;DHT22;18955;51.224;8.482;2022-07-23T02:33:57;17.50;70.00
32506;DHT22;18955;51.224;8.482;2022-07-23T02:36:23;17.50;70.00
32506;DHT22;18955;51.224;8.482;2022-07-23T02:38:51;17.40;70.00
32506;DHT22;18955;51.224;8.482;2022-07-23T02:41:18;17.40;70.10
32506;DHT22;18955;51.224;8.482;2022-07-23T02:43:45;17.40;70.00
32506;DHT22;18955;51.224;8.482;2022-07-23T02:46:12;17.40;70.00
32506;DHT22;18955;51.224;8.482;2022-07-23T02:48:40;17.40;69.80
32506;DHT22;18955;51.224;8.482;2022-07-23T02:51:06;17.40;70.00
32506;DHT22;18955;51.224;8.482;2022-07-23T02:53:38;17.30;70.00
32506;DHT22;18955;51.224;8.482;2022-07-23T02:56:04;17.30;70.10
32506;DHT22;18955;51.224;8.482;2022-07-23T02:58:30;17.30;70.00
32506;DHT22;18955;51.224;8.482;2022-07-23T03:00:57;17.30;70.00
32506;DHT22;18955;51.224;8.482;2022-07-23T03:03:25;17.30;70.10
32506;DHT22;18955;51.224;8.482;2022-07-23T03:05:51;17.30;70.10
32506;DHT22;18955;51.224;8.482;2022-07-23T03:08:18;17.30;70.00
32506;DHT22;18955;51.224;8.482;2022-07-23T03:10:49;17.30;70.30
32506;DHT22;18955;51.224;8.482;2022-07-23T03:13:16;17.30;70.30
32506;DHT22;18955;51.224;8.482;2022-07-23T03:15:42;17.30;70.40
32506;DHT22;18955;51.224;8.482;2022-07-23T03:18:09;17.30;69.90
32506;DHT22;18955;51.224;8.482;2022-07-23T03:20:35;17.20;70.00
32506;DHT22;18955;51.224;8.482;2022-07-23T03:23:01;17.20;70.00
32506;DHT22;18955;51.224;8.482;2022-07-23T03:25:28;17.20;70.00
32506;DHT22;18955;51.224;8.482;2022-07-23T03:27:55;17.20;70.00
32506;DHT22;18955;51.224;8.482;2022-07-23T03:30:21;17.20;70.10
32506;DHT22;18955;51.224;8.482;2022-07-23T03:32:48;17.20;69.90
32506;DHT22;18955;51.224;8.482;2022-07-23T03:35:15;17.20;70.00
32506;DHT22;18955;51.224;8.482;2022-07-23T03:37:49;17.20;70.00
32506;DHT22;18955;51.224;8.482;2022-07-23T03:40:16;17.20;70.10
32506;DHT22;18955;51.224;8.482;2022-07-23T03:42:42;17.10;70.10
32506;DHT22;18955;51.224;8.482;2022-07-23T03:45:09;17.10;70.30
32506;DHT22;18955;51.224;8.482;2022-07-23T03:47:36;17.10;70.10
32506;DHT22;18955;51.224;8.482;2022-07-23T03:50:03;17.10;70.20
32506;DHT22;18955;51.224;8.482;2022-07-23T03:52:29;17.10;70.10
32506;DHT22;18955;51.224;8.482;2022-07-23T03:54:55;17.10;70.20
32506;DHT22;18955;51.224;8.482;2022-07-23T03:57:23;17.00;70.10
32506;DHT22;18955;51.224;8.482;2022-07-23T03:59:49;17.00;70.00
32506;DHT22;18955;51.224;8.482;2022-07-23T04:02:17;17.00;70.20
32506;DHT22;18955;51.224;8.482;2022-07-23T04:04:43;17.00;70.20
32506;DHT22;18955;51.224;8.482;2022-07-23T04:07:09;17.00;70.10
32506;DHT22;18955;51.224;8.482;2022-07-23T04:09:37;17.00;70.30
32506;DHT22;18955;51.224;8.482;2022-07-23T04:12:07;17.00;70.30
32506;DHT22;18955;51.224;8.482;2022-07-23T04:14:33;17.00;70.20
32506;DHT22;18955;51.224;8.482;2022-07-23T04:17:00;17.00;70.10
32506;DHT22;18955;51.224;8.482;2022-07-23T04:19:26;17.00;70.20
32506;DHT22;18955;51.224;8.482;2022-07-23T04:22:00;17.00;70.10
32506;DHT22;18955;51.224;8.482;2022-07-23T04:24:27;17.00;70.30
32506;DHT22;18955;51.224;8.482;2022-07-23T04:26:53;17.00;70.00
32506;DHT22;18955;51.224;8.482;2022-07-23T04:29:19;16.90;70.30
32506;DHT22;18955;51.224;8.482;2022-07-23T04:31:46;16.90;70.00
32506;DHT22;18955;51.224;8.482;2022-07-23T04:34:12;16.90;70.20
32506;DHT22;18955;51.224;8.482;2022-07-23T04:36:39;16.90;70.30
32506;DHT22;18955;51.224;8.482;2022-07-23T04:39:05;16.90;70.30
32506;DHT22;18955;51.224;8.482;2022-07-23T04:41:33;16.90;70.20
32506;DHT22;18955;51.224;8.482;2022-07-23T04:44:01;16.90;70.20
32506;DHT22;18955;51.224;8.482;2022-07-23T04:46:27;16.90;70.10
32506;DHT22;18955;51.224;8.482;2022-07-23T04:48:56;16.90;70.30
32506;DHT22;18955;51.224;8.482;2022-07-23T04:51:23;16.90;70.30
32506;DHT22;18955;51.224;8.482;2022-07-23T04:53:49;16.90;70.30
32506;DHT22;18955;51.224;8.482;2022-07-23T04:56:15;16.80;70.20
32506;DHT22;18955;51.224;8.482;2022-07-23T04:58:42;16.80;70.30
32506;DHT22;18955;51.224;8.482;2022-07-23T05:01:08;16.80;70.30
32506;DHT22;18955;51.224;8.482;2022-07-23T05:03:36;16.80;70.30
32506;DHT22;18955;51.224;8.482;2022-07-23T05:06:03;16.80;70.30
32506;DHT22;18955;51.224;8.482;2022-07-23T05:08:30;16.80;70.30
32506;DHT22;18955;51.224;8.482;2022-07-23T05:10:58;16.80;70.30
32506;DHT22;18955;51.224;8.482;2022-07-23T05:13:24;16.80;70.30
32506;DHT22;18955;51.224;8.482;2022-07-23T05:15:52;16.80;70.30
32506;DHT22;18955;51.224;8.482;2022-07-23T05:18:18;16.80;71.00
32506;DHT22;18955;51.224;8.482;2022-07-23T05:20:45;16.70;70.10
32506;DHT22;18955;51.224;8.482;2022-07-23T05:23:15;16.70;70.30
32506;DHT22;18955;51.224;8.482;2022-07-23T05:25:41;16.70;70.40
32506;DHT22;18955;51.224;8.482;2022-07-23T05:28:08;16.70;70.30
32506;DHT22;18955;51.224;8.482;2022-07-23T05:30:34;16.70;70.30
32506;DHT22;18955;51.224;8.482;2022-07-23T05:33:04;16.70;70.30
32506;DHT22;18955;51.224;8.482;2022-07-23T05:35:30;16.70;70.30
32506;DHT22;18955;51.224;8.482;2022-07-23T05:38:11;16.70;70.00
32506;DHT22;18955;51.224;8.482;2022-07-23T05:40:38;16.70;70.20
32506;DHT22;18955;51.224;8.482;2022-07-23T05:43:04;16.70;70.00
32506;DHT22;18955;51.224;8.482;2022-07-23T05:45:30;16.70;70.20
32506;DHT22;18955;51.224;8.482;2022-07-23T05:47:57;16.70;70.30
32506;DHT22;18955;51.224;8.482;2022-07-23T05:50:28;16.70;70.10
32506;DHT22;18955;51.224;8.482;2022-07-23T05:53:01;16.70;70.70
32506;DHT22;18955;51.224;8.482;2022-07-23T05:55:28;16.70;69.90
32506;DHT22;18955;51.224;8.482;2022-07-23T05:57:58;16.70;70.10
32506;DHT22;18955;51.224;8.482;2022-07-23T06:00:27;16.70;69.90
32506;DHT22;18955;51.224;8.482;2022-07-23T06:02:53;16.70;69.80
32506;DHT22;18955;51.224;8.482;2022-07-23T06:05:19;16.70;69.90
32506;DHT22;18955;51.224;8.482;2022-07-23T06:07:46;16.70;70.00
32506;DHT22;18955;51.224;8.482;2022-07-23T06:10:14;16.70;69.80
32506;DHT22;18955;51.224;8.482;2022-07-23T06:12:40;16.70;69.80
32506;DHT22;18955;51.224;8.482;2022-07-23T06:15:07;16.70;69.80
32506;DHT22;18955;51.224;8.482;2022-07-23T06:17:35;16.80;69.80
32506;DHT22;18955;51.224;8.482;2022-07-23T06:20:02;16.80;69.70
32506;DHT22;18955;51.224;8.482;2022-07-23T06:22:29;16.80;69.60
32506;DHT22;18955;51.224;8.482;2022-07-23T06:24:55;16.80;69.60
32506;DHT22;18955;51.224;8.482;2022-07-23T06:27:22;16.80;69.50
32506;DHT22;18955;51.224;8.482;2022-07-23T06:29:48;16.80;69.50
32506;DHT22;18955;51.224;8.482;2022-07-23T06:32:14;16.80;69.40
32506;DHT22;18955;51.224;8.482;2022-07-23T06:34:40;16.90;69.40
32506;DHT22;18955;51.224;8.482;2022-07-23T06:37:07;16.90;69.20
32506;DHT22;18955;51.224;8.482;2022-07-23T06:39:33;17.00;69.20
32506;DHT22;18955;51.224;8.482;2022-07-23T06:41:59;17.00;69.00
32506;DHT22;18955;51.224;8.482;2022-07-23T06:44:37;17.00;68.90
32506;DHT22;18955;51.224;8.482;2022-07-23T06:47:03;17.00;68.80
32506;DHT22;18955;51.224;8.482;2022-07-23T06:49:30;17.00;68.70
32506;DHT22;18955;51.224;8.482;2022-07-23T06:51:57;17.10;68.70
32506;DHT22;18955;51.224;8.482;2022-07-23T06:54:23;17.20;68.70
32506;DHT22;18955;51.224;8.482;2022-07-23T06:56:50;17.20;68.40
32506;DHT22;18955;51.224;8.482;2022-07-23T06:59:16;17.30;68.40
32506;DHT22;18955;51.224;8.482;2022-07-23T07:01:43;17.30;68.40
32506;DHT22;18955;51.224;8.482;2022-07-23T07:04:09;17.30;68.30
32506;DHT22;18955;51.224;8.482;2022-07-23T07:06:35;17.30;68.20
32506;DHT22;18955;51.224;8.482;2022-07-23T07:09:02;17.40;68.20
32506;DHT22;18955;51.224;8.482;2022-07-23T07:11:28;17.40;68.20
32506;DHT22;18955;51.224;8.482;2022-07-23T07:13:54;17.40;68.10
32506;DHT22;18955;51.224;8.482;2022-07-23T07:16:21;17.40;68.00
32506;DHT22;18955;51.224;8.482;2022-07-23T07:18:47;17.50;68.00
32506;DHT22;18955;51.224;8.482;2022-07-23T07:21:14;17.50;67.90
32506;DHT22;18955;51.224;8.482;2022-07-23T07:23:40;17.60;67.90
32506;DHT22;18955;51.224;8.482;2022-07-23T07:26:06;17.60;68.20
32506;DHT22;18955;51.224;8.482;2022-07-23T07:28:32;17.60;68.40
32506;DHT22;18955;51.224;8.482;2022-07-23T07:30:58;17.60;68.60
32506;DHT22;18955;51.224;8.482;2022-07-23T07:33:25;17.60;68.60
32506;DHT22;18955;51.224;8.482;2022-07-23T07:35:51;17.60;68.10
32506;DHT22;18955;51.224;8.482;2022-07-23T07:38:17;17.70;68.50
32506;DHT22;18955;51.224;8.482;2022-07-23T07:40:44;17.60;68.50
32506;DHT22;18955;51.224;8.482;2022-07-23T07:43:10;17.70;69.50
32506;DHT22;18955;51.224;8.482;2022-07-23T07:45:36;17.70;70.60
32506;DHT22;18955;51.224;8.482;2022-07-23T07:48:03;17.70;70.50
32506;DHT22;18955;51.224;8.482;2022-07-23T07:50:30;17.70;73.00
32506;DHT22;18955;51.224;8.482;2022-07-23T07:52:57;17.60;74.20
32506;DHT22;18955;51.224;8.482;2022-07-23T07:55:23;17.60;74.20
32506;DHT22;18955;51.224;8.482;2022-07-23T07:57:49;17.60;72.70
32506;DHT22;18955;51.224;8.482;2022-07-23T08:00:16;17.70;74.80
32506;DHT22;18955;51.224;8.482;2022-07-23T08:02:44;17.60;74.30
32506;DHT22;18955;51.224;8.482;2022-07-23T08:05:12;17.70;73.40
32506;DHT22;18955;51.224;8.482;2022-07-23T08:07:38;17.70;73.60
32506;DHT22;18955;51.224;8.482;2022-07-23T08:10:07;17.80;74.40
32506;DHT22;18955;51.224;8.482;2022-07-23T08:12:45;17.90;73.90
32506;DHT22;18955;51.224;8.482;2022-07-23T08:15:12;17.90;74.00
32506;DHT22;18955;51.224;8.482;2022-07-23T08:17:38;18.00;73.40
32506;DHT22;18955;51.224;8.482;2022-07-23T08:20:06;18.00;73.30
32506;DHT22;18955;51.224;8.482;2022-07-23T08:22:46;18.10;72.90
32506;DHT22;18955;51.224;8.482;2022-07-23T08:25:14;18.10;72.50
32506;DHT22;18955;51.224;8.482;2022-07-23T08:27:40;18.10;72.60
32506;DHT22;18955;51.224;8.482;2022-07-23T08:30:07;18.20;72.50
32506;DHT22;18955;51.224;8.482;2022-07-23T08:32:47;18.20;72.30
32506;DHT22;18955;51.224;8.482;2022-07-23T08:35:14;18.20;72.20
32506;DHT22;18955;51.224;8.482;2022-07-23T08:37:40;18.20;71.90
32506;DHT22;18955;51.224;8.482;2022-07-23T08:40:07;18.20;71.80
32506;DHT22;18955;51.224;8.482;2022-07-23T08:42:33;18.20;71.80
32506;DHT22;18955;51.224;8.482;2022-07-23T08:45:04;18.30;71.90
32506;DHT22;18955;51.224;8.482;2022-07-23T08:47:33;18.20;72.10
32506;DHT22;18955;51.224;8.482;2022-07-23T08:49:59;18.30;71.90
32506;DHT22;18955;51.224;8.482;2022-07-23T08:52:26;18.30;71.30
32506;DHT22;18955;51.224;8.482;2022-07-23T08:54:52;18.30;71.50
32506;DHT22;18955;51.224;8.482;2022-07-23T08:57:19;18.30;71.40
32506;DHT22;18955;51.224;8.482;2022-07-23T08:59:45;18.30;71.70
32506;DHT22;18955;51.224;8.482;2022-07-23T09:02:12;18.40;71.90
32506;DHT22;18955;51.224;8.482;2022-07-23T09:04:38;18.40;71.80
32506;DHT22;18955;51.224;8.482;2022-07-23T09:07:05;18.30;71.10
32506;DHT22;18955;51.224;8.482;2022-07-23T09:09:31;18.40;71.20
32506;DHT22;18955;51.224;8.482;2022-07-23T09:12:05;18.40;71.10
32506;DHT22;18955;51.224;8.482;2022-07-23T09:17:17;18.40;71.30
32506;DHT22;18955;51.224;8.482;2022-07-23T09:19:44;18.40;71.20
32506;DHT22;18955;51.224;8.482;2022-07-23T09:22:25;18.50;71.00
32506;DHT22;18955;51.224;8.482;2022-07-23T09:25:11;18.50;71.40
32506;DHT22;18955;51.224;8.482;2022-07-23T09:28:05;18.50;71.00
32506;DHT22;18955;51.224;8.482;2022-07-23T09:30:33;18.50;71.30
32506;DHT22;18955;51.224;8.482;2022-07-23T09:33:12;18.60;71.10
32506;DHT22;18955;51.224;8.482;2022-07-23T09:35:52;18.50;71.50
32506;DHT22;18955;51.224;8.482;2022-07-23T09:38:23;18.60;70.80
32506;DHT22;18955;51.224;8.482;2022-07-23T09:41:09;18.60;71.10
32506;DHT22;18955;51.224;8.482;2022-07-23T09:43:36;18.60;70.90
32506;DHT22;18955;51.224;8.482;2022-07-23T09:46:21;18.60;70.90
32506;DHT22;18955;51.224;8.482;2022-07-23T09:48:51;18.60;70.90
32506;DHT22;18955;51.224;8.482;2022-07-23T09:51:18;18.60;70.90
32506;DHT22;18955;51.224;8.482;2022-07-23T09:54:02;18.70;70.90
32506;DHT22;18955;51.224;8.482;2022-07-23T09:56:31;18.70;70.90
32506;DHT22;18955;51.224;8.482;2022-07-23T09:59:00;18.70;70.80
32506;DHT22;18955;51.224;8.482;2022-07-23T10:01:34;18.70;70.70
32506;DHT22;18955;51.224;8.482;2022-07-23T10:04:01;18.70;70.70
32506;DHT22;18955;51.224;8.482;2022-07-23T10:06:56;18.70;70.60
32506;DHT22;18955;51.224;8.482;2022-07-23T10:09:41;18.80;70.80
32506;DHT22;18955;51.224;8.482;2022-07-23T10:12:40;18.80;70.80
32506;DHT22;18955;51.224;8.482;2022-07-23T10:15:12;18.80;70.80
32506;DHT22;18955;51.224;8.482;2022-07-23T10:17:39;18.80;70.90
32506;DHT22;18955;51.224;8.482;2022-07-23T10:20:05;18.80;70.90
32506;DHT22;18955;51.224;8.482;2022-07-23T10:22:42;18.80;70.80
32506;DHT22;18955;51.224;8.482;2022-07-23T10:25:24;18.80;70.80
32506;DHT22;18955;51.224;8.482;2022-07-23T10:33:56;18.90;70.90
32506;DHT22;18955;51.224;8.482;2022-07-23T10:39:41;18.90;70.80
32506;DHT22;18955;51.224;8.482;2022-07-23T10:42:12;18.90;70.90
32506;DHT22;18955;51.224;8.482;2022-07-23T10:44:42;18.90;70.90
32506;DHT22;18955;51.224;8.482;2022-07-23T10:47:10;18.90;71.00
32506;DHT22;18955;51.224;8.482;2022-07-23T10:49:44;18.80;71.00
32506;DHT22;18955;51.224;8.482;2022-07-23T10:54:41;18.90;70.90
32506;DHT22;18955;51.224;8.482;2022-07-23T10:57:08;18.90;71.00
32506;DHT22;18955;51.224;8.482;2022-07-23T11:02:36;18.90;71.00
32506;DHT22;18955;51.224;8.482;2022-07-23T11:05:10;18.90;70.90
32506;DHT22;18955;51.224;8.482;2022-07-23T11:18:54;18.90;70.90
32506;DHT22;18955;51.224;8.482;2022-07-23T11:24:12;18.90;70.80
32506;DHT22;18955;51.224;8.482;2022-07-23T11:27:00;18.90;70.80
32506;DHT22;18955;51.224;8.482;2022-07-23T11:34:39;18.90;70.80
32506;DHT22;18955;51.224;8.482;2022-07-23T11:37:08;18.90;70.80
32506;DHT22;18955;51.224;8.482;2022-07-23T11:39:35;18.90;70.70
32506;DHT22;18955;51.224;8.482;2022-07-23T11:42:04;18.90;70.60
32506;DHT22;18955;51.224;8.482;2022-07-23T11:44:33;18.90;70.60
32506;DHT22;18955;51.224;8.482;2022-07-23T11:47:05;18.90;70.50
32506;DHT22;18955;51.224;8.482;2022-07-23T11:49:33;18.90;70.60
32506;DHT22;18955;51.224;8.482;2022-07-23T11:54:31;18.90;70.50
32506;DHT22;18955;51.224;8.482;2022-07-23T11:56:59;18.90;70.60
32506;DHT22;18955;51.224;8.482;2022-07-23T11:59:31;18.90;70.60
32506;DHT22;18955;51.224;8.482;2022-07-23T12:07:03;18.90;70.40
32506;DHT22;18955;51.224;8.482;2022-07-23T12:09:29;18.90;70.50
32506;DHT22;18955;51.224;8.482;2022-07-23T12:12:00;18.90;70.50
32506;DHT22;18955;51.224;8.482;2022-07-23T12:14:26;18.90;70.50
32506;DHT22;18955;51.224;8.482;2022-07-23T12:17:11;18.90;70.40
32506;DHT22;18955;51.224;8.482;2022-07-23T12:19:37;19.00;70.40
32506;DHT22;18955;51.224;8.482;2022-07-23T12:22:04;19.00;70.40
32506;DHT22;18955;51.224;8.482;2022-07-23T12:24:30;18.90;70.30
32506;DHT22;18955;51.224;8.482;2022-07-23T12:27:12;18.90;70.30
32506;DHT22;18955;51.224;8.482;2022-07-23T12:29:39;18.90;70.30
32506;DHT22;18955;51.224;8.482;2022-07-23T12:32:20;18.90;70.30
32506;DHT22;18955;51.224;8.482;2022-07-23T12:35:01;19.00;69.80
32506;DHT22;18955;51.224;8.482;2022-07-23T12:37:33;18.90;69.90
32506;DHT22;18955;51.224;8.482;2022-07-23T12:43:10;19.00;69.30
32506;DHT22;18955;51.224;8.482;2022-07-23T12:45:45;19.00;69.40
32506;DHT22;18955;51.224;8.482;2022-07-23T12:48:30;19.00;69.40
32506;DHT22;18955;51.224;8.482;2022-07-23T12:51:40;19.10;69.60
32506;DHT22;18955;51.224;8.482;2022-07-23T12:53:50;19.10;69.50
32506;DHT22;18955;51.224;8.482;2022-07-23T12:56:28;19.10;69.40
32506;DHT22;18955;51.224;8.482;2022-07-23T12:59:05;19.10;69.40
32506;DHT22;18955;51.224;8.482;2022-07-23T13:04:19;19.10;70.30
32506;DHT22;18955;51.224;8.482;2022-07-23T13:06:49;19.10;69.80
32506;DHT22;18955;51.224;8.482;2022-07-23T13:09:27;19.10;69.80
32506;DHT22;18955;51.224;8.482;2022-07-23T13:11:55;19.10;69.90
32506;DHT22;18955;51.224;8.482;2022-07-23T13:14:22;19.10;69.80
32506;DHT22;18955;51.224;8.482;2022-07-23T13:16:49;19.10;69.70
32506;DHT22;18955;51.224;8.482;2022-07-23T13:19:16;19.20;69.90
32506;DHT22;18955;51.224;8.482;2022-07-23T13:21:42;19.20;69.90
32506;DHT22;18955;51.224;8.482;2022-07-23T13:24:10;19.20;69.90
32506;DHT22;18955;51.224;8.482;2022-07-23T13:26:37;19.20;69.70
32506;DHT22;18955;51.224;8.482;2022-07-23T13:29:06;19.20;69.50
32506;DHT22;18955;51.224;8.482;2022-07-23T13:31:32;19.30;69.80
32506;DHT22;18955;51.224;8.482;2022-07-23T13:33:59;19.30;69.80
32506;DHT22;18955;51.224;8.482;2022-07-23T13:36:25;19.20;69.80
32506;DHT22;18955;51.224;8.482;2022-07-23T13:38:52;19.20;69.80
32506;DHT22;18955;51.224;8.482;2022-07-23T13:41:18;19.30;69.80
32506;DHT22;18955;51.224;8.482;2022-07-23T13:43:44;19.30;69.90
32506;DHT22;18955;51.224;8.482;2022-07-23T13:46:11;19.30;69.90
32506;DHT22;18955;51.224;8.482;2022-07-23T13:48:37;19.30;69.90
32506;DHT22;18955;51.224;8.482;2022-07-23T13:51:03;19.30;69.90
32506;DHT22;18955;51.224;8.482;2022-07-23T13:53:30;19.40;69.90
32506;DHT22;18955;51.224;8.482;2022-07-23T13:55:56;19.40;69.90
32506;DHT22;18955;51.224;8.482;2022-07-23T13:58:23;19.40;69.90
32506;DHT22;18955;51.224;8.482;2022-07-23T14:00:52;19.40;69.90
32506;DHT22;18955;51.224;8.482;2022-07-23T14:03:20;19.40;69.80
32506;DHT22;18955;51.224;8.482;2022-07-23T14:05:46;19.40;69.80
32506;DHT22;18955;51.224;8.482;2022-07-23T14:08:12;19.50;69.80
32506;DHT22;18955;51.224;8.482;2022-07-23T14:10:39;19.50;69.70
32506;DHT22;18955;51.224;8.482;2022-07-23T14:13:05;19.50;69.50
32506;DHT22;18955;51.224;8.482;2022-07-23T14:15:32;19.60;69.60
32506;DHT22;18955;51.224;8.482;2022-07-23T14:17:59;19.60;69.60
32506;DHT22;18955;51.224;8.482;2022-07-23T14:20:25;19.60;69.60
32506;DHT22;18955;51.224;8.482;2022-07-23T14:22:51;19.70;69.60
32506;DHT22;18955;51.224;8.482;2022-07-23T14:25:18;19.70;69.60
32506;DHT22;18955;51.224;8.482;2022-07-23T14:27:45;19.70;69.60
32506;DHT22;18955;51.224;8.482;2022-07-23T14:30:11;19.80;69.50
32506;DHT22;18955;51.224;8.482;2022-07-23T14:32:37;19.80;69.50
32506;DHT22;18955;51.224;8.482;2022-07-23T14:35:05;19.80;69.40
32506;DHT22;18955;51.224;8.482;2022-07-23T14:37:32;19.80;69.40
32506;DHT22;18955;51.224;8.482;2022-07-23T14:39:58;19.90;69.50
32506;DHT22;18955;51.224;8.482;2022-07-23T14:42:25;19.90;69.20
32506;DHT22;18955;51.224;8.482;2022-07-23T14:44:51;20.00;69.30
32506;DHT22;18955;51.224;8.482;2022-07-23T14:47:18;19.90;69.20
32506;DHT22;18955;51.224;8.482;2022-07-23T14:49:44;20.00;69.30
32506;DHT22;18955;51.224;8.482;2022-07-23T14:52:10;20.10;69.30
32506;DHT22;18955;51.224;8.482;2022-07-23T14:54:36;20.10;69.10
32506;DHT22;18955;51.224;8.482;2022-07-23T14:57:03;20.20;69.30
32506;DHT22;18955;51.224;8.482;2022-07-23T14:59:30;20.20;68.90
32506;DHT22;18955;51.224;8.482;2022-07-23T15:01:57;20.20;68.80
32506;DHT22;18955;51.224;8.482;2022-07-23T15:04:24;20.30;68.90
32506;DHT22;18955;51.224;8.482;2022-07-23T15:06:51;20.30;68.60
32506;DHT22;18955;51.224;8.482;2022-07-23T15:09:17;20.40;68.50
32506;DHT22;18955;51.224;8.482;2022-07-23T15:11:44;20.40;68.60
32506;DHT22;18955;51.224;8.482;2022-07-23T15:14:10;20.50;68.60
32506;DHT22;18955;51.224;8.482;2022-07-23T15:16:36;20.50;68.40
32506;DHT22;18955;51.224;8.482;2022-07-23T15:19:03;20.50;68.20
32506;DHT22;18955;51.224;8.482;2022-07-23T15:21:29;20.60;67.50
32506;DHT22;18955;51.224;8.482;2022-07-23T15:23:56;20.60;66.90
32506;DHT22;18955;51.224;8.482;2022-07-23T15:26:28;20.70;67.30
32506;DHT22;18955;51.224;8.482;2022-07-23T15:28:55;20.70;67.30
32506;DHT22;18955;51.224;8.482;2022-07-23T15:31:21;20.80;67.30
32506;DHT22;18955;51.224;8.482;2022-07-23T15:33:47;20.80;67.30
32506;DHT22;18955;51.224;8.482;2022-07-23T15:36:14;20.90;67.30
32506;DHT22;18955;51.224;8.482;2022-07-23T15:38:40;20.90;67.30
32506;DHT22;18955;51.224;8.482;2022-07-23T15:41:07;21.00;67.60
32506;DHT22;18955;51.224;8.482;2022-07-23T15:43:33;21.00;67.30
32506;DHT22;18955;51.224;8.482;2022-07-23T15:45:59;21.10;67.30
32506;DHT22;18955;51.224;8.482;2022-07-23T15:48:25;21.20;67.20
32506;DHT22;18955;51.224;8.482;2022-07-23T15:50:52;21.20;67.10
32506;DHT22;18955;51.224;8.482;2022-07-23T15:53:18;21.30;67.20
32506;DHT22;18955;51.224;8.482;2022-07-23T15:55:45;21.30;67.20
32506;DHT22;18955;51.224;8.482;2022-07-23T15:58:11;21.40;67.00
32506;DHT22;18955;51.224;8.482;2022-07-23T16:00:38;21.40;66.90
32506;DHT22;18955;51.224;8.482;2022-07-23T16:03:04;21.40;67.40
32506;DHT22;18955;51.224;8.482;2022-07-23T16:05:30;21.50;67.00
32506;DHT22;18955;51.224;8.482;2022-07-23T16:08:01;21.60;67.10
32506;DHT22;18955;51.224;8.482;2022-07-23T16:10:28;21.60;67.00
32506;DHT22;18955;51.224;8.482;2022-07-23T16:12:54;21.70;67.50
32506;DHT22;18955;51.224;8.482;2022-07-23T16:15:21;21.70;67.40
32506;DHT22;18955;51.224;8.482;2022-07-23T16:17:47;21.70;67.20
32506;DHT22;18955;51.224;8.482;2022-07-23T16:20:13;21.70;67.30
32506;DHT22;18955;51.224;8.482;2022-07-23T16:22:40;21.80;67.10
32506;DHT22;18955;51.224;8.482;2022-07-23T16:25:07;21.80;67.10
32506;DHT22;18955;51.224;8.482;2022-07-23T16:27:36;21.80;67.20
32506;DHT22;18955;51.224;8.482;2022-07-23T16:30:04;21.90;67.10